sensor_id;sensor_type;location;lat;lon;timestamp;P1;durP1;ratioP1;P2;durP2;ratioP2
66129;SDS011;52930;51.464;11.764;2023-12-20T00:01:07;7.38;;;3.08;;
66129;SDS011;52930;51.464;11.764;2023-12-20T00:03:34;7.27;;;2.57;;
66129;SDS011;52930;51.464;11.764;2023-12-20T00:05:59;7.80;;;3.20;;
66129;SDS011;52930;51.464;11.764;2023-12-20T00:08:24;7.93;;;2.83;;
66129;SDS011;52930;51.464;11.764;2023-12-20T00:10:50;6.30;;;2.72;;
66129;SDS011;52930;51.464;11.764;2023-12-20T00:13:15;7.10;;;2.87;;
66129;SDS011;52930;51.464;11.764;2023-12-20T00:15:40;7.23;;;2.80;;
66129;SDS011;52930;51.464;11.764;2023-12-20T00:18:05;7.67;;;3.03;;
66129;SDS011;52930;51.464;11.764;2023-12-20T00:20:31;7.30;;;2.87;;
66129;SDS011;52930;51.464;11.764;2023-12-20T00:22:57;11.00;;;3.23;;
66129;SDS011;52930;51.464;11.764;2023-12-20T00:25:25;9.70;;;2.90;;
66129;SDS011;52930;51.464;11.764;2023-12-20T00:27:50;7.27;;;2.90;;
66129;SDS011;52930;51.464;11.764;2023-12-20T00:30:16;6.90;;;2.63;;
66129;SDS011;52930;51.464;11.764;2023-12-20T00:32:41;7.30;;;2.90;;
66129;SDS011;52930;51.464;11.764;2023-12-20T00:35:12;8.10;;;3.17;;
66129;SDS011;52930;51.464;11.764;2023-12-20T00:37:38;6.57;;;2.80;;
66129;SDS011;52930;51.464;11.764;2023-12-20T00:40:03;8.03;;;2.80;;
66129;SDS011;52930;51.464;11.764;2023-12-20T00:42:29;7.75;;;3.15;;
66129;SDS011;52930;51.464;11.764;2023-12-20T00:44:54;6.30;;;2.80;;
66129;SDS011;52930;51.464;11.764;2023-12-20T00:47:20;7.03;;;3.00;;
66129;SDS011;52930;51.464;11.764;2023-12-20T00:49:45;8.00;;;3.13;;
66129;SDS011;52930;51.464;11.764;2023-12-20T00:52:10;7.87;;;3.27;;
66129;SDS011;52930;51.464;11.764;2023-12-20T00:54:35;7.87;;;3.40;;
66129;SDS011;52930;51.464;11.764;2023-12-20T00:57:01;7.47;;;2.97;;
66129;SDS011;52930;51.464;11.764;2023-12-20T00:59:26;7.80;;;3.13;;
66129;SDS011;52930;51.464;11.764;2023-12-20T01:01:51;8.13;;;2.70;;
66129;SDS011;52930;51.464;11.764;2023-12-20T01:04:17;6.88;;;2.85;;
66129;SDS011;52930;51.464;11.764;2023-12-20T01:06:42;7.10;;;2.83;;
66129;SDS011;52930;51.464;11.764;2023-12-20T01:09:07;8.30;;;3.43;;
66129;SDS011;52930;51.464;11.764;2023-12-20T01:11:32;7.73;;;2.93;;
66129;SDS011;52930;51.464;11.764;2023-12-20T01:13:58;6.60;;;2.70;;
66129;SDS011;52930;51.464;11.764;2023-12-20T01:16:23;8.30;;;3.57;;
66129;SDS011;52930;51.464;11.764;2023-12-20T01:18:48;8.27;;;3.67;;
66129;SDS011;52930;51.464;11.764;2023-12-20T01:21:14;8.52;;;3.60;;
66129;SDS011;52930;51.464;11.764;2023-12-20T01:23:39;8.25;;;3.40;;
66129;SDS011;52930;51.464;11.764;2023-12-20T01:26:05;9.03;;;3.30;;
66129;SDS011;52930;51.464;11.764;2023-12-20T01:28:30;8.13;;;3.40;;
66129;SDS011;52930;51.464;11.764;2023-12-20T01:30:56;7.83;;;3.23;;
66129;SDS011;52930;51.464;11.764;2023-12-20T01:33:21;10.00;;;3.87;;
66129;SDS011;52930;51.464;11.764;2023-12-20T01:35:46;7.63;;;3.00;;
66129;SDS011;52930;51.464;11.764;2023-12-20T01:38:11;8.48;;;3.58;;
66129;SDS011;52930;51.464;11.764;2023-12-20T01:40:37;8.73;;;3.10;;
66129;SDS011;52930;51.464;11.764;2023-12-20T01:43:06;8.93;;;4.00;;
66129;SDS011;52930;51.464;11.764;2023-12-20T01:45:33;9.00;;;3.47;;
66129;SDS011;52930;51.464;11.764;2023-12-20T01:47:58;7.53;;;2.80;;
66129;SDS011;52930;51.464;11.764;2023-12-20T01:50:25;6.70;;;2.87;;
66129;SDS011;52930;51.464;11.764;2023-12-20T01:52:52;7.38;;;3.00;;
66129;SDS011;52930;51.464;11.764;2023-12-20T01:55:20;8.70;;;3.50;;
66129;SDS011;52930;51.464;11.764;2023-12-20T01:57:46;8.07;;;3.90;;
66129;SDS011;52930;51.464;11.764;2023-12-20T02:00:12;8.20;;;3.38;;
66129;SDS011;52930;51.464;11.764;2023-12-20T02:02:41;8.10;;;3.00;;
66129;SDS011;52930;51.464;11.764;2023-12-20T02:05:06;9.90;;;3.38;;
66129;SDS011;52930;51.464;11.764;2023-12-20T02:07:32;8.50;;;3.55;;
66129;SDS011;52930;51.464;11.764;2023-12-20T02:09:59;6.95;;;2.80;;
66129;SDS011;52930;51.464;11.764;2023-12-20T02:12:25;7.03;;;2.60;;
66129;SDS011;52930;51.464;11.764;2023-12-20T02:14:50;7.07;;;2.50;;
66129;SDS011;52930;51.464;11.764;2023-12-20T02:17:16;7.37;;;2.90;;
66129;SDS011;52930;51.464;11.764;2023-12-20T02:19:41;9.57;;;3.22;;
66129;SDS011;52930;51.464;11.764;2023-12-20T02:22:09;7.35;;;2.97;;
66129;SDS011;52930;51.464;11.764;2023-12-20T02:24:35;8.30;;;3.10;;
66129;SDS011;52930;51.464;11.764;2023-12-20T02:27:00;7.25;;;2.88;;
66129;SDS011;52930;51.464;11.764;2023-12-20T02:29:26;7.33;;;2.73;;
66129;SDS011;52930;51.464;11.764;2023-12-20T02:31:52;7.20;;;3.20;;
66129;SDS011;52930;51.464;11.764;2023-12-20T02:34:17;8.10;;;3.50;;
66129;SDS011;52930;51.464;11.764;2023-12-20T02:36:42;8.40;;;3.40;;
66129;SDS011;52930;51.464;11.764;2023-12-20T02:39:07;7.97;;;3.60;;
66129;SDS011;52930;51.464;11.764;2023-12-20T02:41:33;7.63;;;3.05;;
66129;SDS011;52930;51.464;11.764;2023-12-20T02:43:58;8.48;;;3.22;;
66129;SDS011;52930;51.464;11.764;2023-12-20T02:46:23;8.53;;;3.10;;
66129;SDS011;52930;51.464;11.764;2023-12-20T02:48:49;7.57;;;3.00;;
66129;SDS011;52930;51.464;11.764;2023-12-20T02:51:14;8.67;;;3.30;;
66129;SDS011;52930;51.464;11.764;2023-12-20T02:53:39;6.47;;;2.40;;
66129;SDS011;52930;51.464;11.764;2023-12-20T02:56:05;6.87;;;2.93;;
66129;SDS011;52930;51.464;11.764;2023-12-20T02:58:30;6.80;;;2.60;;
66129;SDS011;52930;51.464;11.764;2023-12-20T03:00:56;7.13;;;3.30;;
66129;SDS011;52930;51.464;11.764;2023-12-20T03:03:21;7.83;;;3.17;;
66129;SDS011;52930;51.464;11.764;2023-12-20T03:05:46;7.10;;;2.90;;
66129;SDS011;52930;51.464;11.764;2023-12-20T03:08:11;7.90;;;3.03;;
66129;SDS011;52930;51.464;11.764;2023-12-20T03:10:37;6.27;;;2.47;;
66129;SDS011;52930;51.464;11.764;2023-12-20T03:13:02;7.17;;;2.93;;
66129;SDS011;52930;51.464;11.764;2023-12-20T03:15:27;7.00;;;2.93;;
66129;SDS011;52930;51.464;11.764;2023-12-20T03:17:53;6.53;;;2.10;;
66129;SDS011;52930;51.464;11.764;2023-12-20T03:20:18;6.50;;;2.53;;
66129;SDS011;52930;51.464;11.764;2023-12-20T03:22:43;6.10;;;2.20;;
66129;SDS011;52930;51.464;11.764;2023-12-20T03:25:08;6.30;;;2.40;;
66129;SDS011;52930;51.464;11.764;2023-12-20T03:27:34;6.33;;;2.37;;
66129;SDS011;52930;51.464;11.764;2023-12-20T03:30:02;5.75;;;2.13;;
66129;SDS011;52930;51.464;11.764;2023-12-20T03:32:28;6.27;;;2.40;;
66129;SDS011;52930;51.464;11.764;2023-12-20T03:34:53;7.20;;;2.40;;
66129;SDS011;52930;51.464;11.764;2023-12-20T03:37:18;7.70;;;2.60;;
66129;SDS011;52930;51.464;11.764;2023-12-20T03:39:43;7.13;;;2.90;;
66129;SDS011;52930;51.464;11.764;2023-12-20T03:42:09;7.30;;;2.70;;
66129;SDS011;52930;51.464;11.764;2023-12-20T03:44:38;6.43;;;2.87;;
66129;SDS011;52930;51.464;11.764;2023-12-20T03:47:04;7.45;;;2.80;;
66129;SDS011;52930;51.464;11.764;2023-12-20T03:49:29;7.33;;;2.40;;
66129;SDS011;52930;51.464;11.764;2023-12-20T03:51:54;5.43;;;2.03;;
66129;SDS011;52930;51.464;11.764;2023-12-20T03:54:20;6.45;;;2.50;;
66129;SDS011;52930;51.464;11.764;2023-12-20T03:56:45;8.03;;;2.73;;
66129;SDS011;52930;51.464;11.764;2023-12-20T03:59:10;8.30;;;3.30;;
66129;SDS011;52930;51.464;11.764;2023-12-20T04:01:35;7.40;;;3.00;;
66129;SDS011;52930;51.464;11.764;2023-12-20T04:04:01;8.33;;;3.23;;
66129;SDS011;52930;51.464;11.764;2023-12-20T04:06:26;6.83;;;2.43;;
66129;SDS011;52930;51.464;11.764;2023-12-20T04:08:52;6.63;;;2.63;;
66129;SDS011;52930;51.464;11.764;2023-12-20T04:11:17;6.93;;;2.60;;
66129;SDS011;52930;51.464;11.764;2023-12-20T04:13:42;6.83;;;2.67;;
66129;SDS011;52930;51.464;11.764;2023-12-20T04:16:08;6.47;;;2.67;;
66129;SDS011;52930;51.464;11.764;2023-12-20T04:18:33;6.17;;;2.10;;
66129;SDS011;52930;51.464;11.764;2023-12-20T04:20:59;4.82;;;1.75;;
66129;SDS011;52930;51.464;11.764;2023-12-20T04:23:24;8.98;;;2.10;;
66129;SDS011;52930;51.464;11.764;2023-12-20T04:25:49;5.47;;;2.00;;
66129;SDS011;52930;51.464;11.764;2023-12-20T04:28:15;4.67;;;1.67;;
66129;SDS011;52930;51.464;11.764;2023-12-20T04:30:41;6.13;;;1.80;;
66129;SDS011;52930;51.464;11.764;2023-12-20T04:33:07;4.90;;;1.80;;
66129;SDS011;52930;51.464;11.764;2023-12-20T04:35:32;5.00;;;1.90;;
66129;SDS011;52930;51.464;11.764;2023-12-20T04:37:57;5.90;;;2.40;;
66129;SDS011;52930;51.464;11.764;2023-12-20T04:40:23;5.77;;;2.07;;
66129;SDS011;52930;51.464;11.764;2023-12-20T04:42:48;6.50;;;2.43;;
66129;SDS011;52930;51.464;11.764;2023-12-20T04:45:13;5.97;;;2.00;;
66129;SDS011;52930;51.464;11.764;2023-12-20T04:47:41;6.30;;;2.28;;
66129;SDS011;52930;51.464;11.764;2023-12-20T04:50:07;5.78;;;2.42;;
66129;SDS011;52930;51.464;11.764;2023-12-20T04:52:33;5.25;;;2.20;;
66129;SDS011;52930;51.464;11.764;2023-12-20T04:54:58;4.83;;;1.93;;
66129;SDS011;52930;51.464;11.764;2023-12-20T04:57:24;5.40;;;2.00;;
66129;SDS011;52930;51.464;11.764;2023-12-20T04:59:49;5.47;;;1.63;;
66129;SDS011;52930;51.464;11.764;2023-12-20T05:02:15;5.87;;;1.80;;
66129;SDS011;52930;51.464;11.764;2023-12-20T05:04:40;4.97;;;1.87;;
66129;SDS011;52930;51.464;11.764;2023-12-20T05:07:06;5.97;;;2.15;;
66129;SDS011;52930;51.464;11.764;2023-12-20T05:09:31;4.50;;;1.83;;
66129;SDS011;52930;51.464;11.764;2023-12-20T05:11:57;4.60;;;1.70;;
66129;SDS011;52930;51.464;11.764;2023-12-20T05:14:22;6.87;;;2.47;;
66129;SDS011;52930;51.464;11.764;2023-12-20T05:16:47;6.87;;;2.57;;
66129;SDS011;52930;51.464;11.764;2023-12-20T05:19:12;5.57;;;2.13;;
66129;SDS011;52930;51.464;11.764;2023-12-20T05:21:39;6.03;;;2.15;;
66129;SDS011;52930;51.464;11.764;2023-12-20T05:24:04;4.90;;;1.70;;
66129;SDS011;52930;51.464;11.764;2023-12-20T05:26:30;5.03;;;1.97;;
66129;SDS011;52930;51.464;11.764;2023-12-20T05:28:55;6.53;;;2.53;;
66129;SDS011;52930;51.464;11.764;2023-12-20T05:31:20;5.07;;;1.90;;
66129;SDS011;52930;51.464;11.764;2023-12-20T05:33:46;6.20;;;2.40;;
66129;SDS011;52930;51.464;11.764;2023-12-20T05:36:11;5.83;;;2.30;;
66129;SDS011;52930;51.464;11.764;2023-12-20T05:38:38;5.95;;;2.35;;
66129;SDS011;52930;51.464;11.764;2023-12-20T05:41:03;6.30;;;2.60;;
66129;SDS011;52930;51.464;11.764;2023-12-20T05:43:29;6.23;;;2.27;;
66129;SDS011;52930;51.464;11.764;2023-12-20T05:45:54;6.87;;;2.77;;
66129;SDS011;52930;51.464;11.764;2023-12-20T05:48:19;7.33;;;2.57;;
66129;SDS011;52930;51.464;11.764;2023-12-20T05:50:45;6.63;;;2.60;;
66129;SDS011;52930;51.464;11.764;2023-12-20T05:53:10;6.20;;;2.50;;
66129;SDS011;52930;51.464;11.764;2023-12-20T05:55:35;7.65;;;2.85;;
66129;SDS011;52930;51.464;11.764;2023-12-20T05:58:01;7.50;;;3.37;;
66129;SDS011;52930;51.464;11.764;2023-12-20T06:00:26;7.07;;;3.00;;
66129;SDS011;52930;51.464;11.764;2023-12-20T06:02:52;8.20;;;2.93;;
66129;SDS011;52930;51.464;11.764;2023-12-20T06:05:18;8.98;;;3.17;;
66129;SDS011;52930;51.464;11.764;2023-12-20T06:07:43;10.87;;;3.57;;
66129;SDS011;52930;51.464;11.764;2023-12-20T06:10:10;10.35;;;3.30;;
66129;SDS011;52930;51.464;11.764;2023-12-20T06:12:35;7.87;;;2.73;;
66129;SDS011;52930;51.464;11.764;2023-12-20T06:15:01;8.83;;;2.90;;
66129;SDS011;52930;51.464;11.764;2023-12-20T06:17:26;10.77;;;3.70;;
66129;SDS011;52930;51.464;11.764;2023-12-20T06:19:52;9.67;;;3.13;;
66129;SDS011;52930;51.464;11.764;2023-12-20T06:22:17;10.97;;;2.53;;
66129;SDS011;52930;51.464;11.764;2023-12-20T06:24:42;8.57;;;2.90;;
66129;SDS011;52930;51.464;11.764;2023-12-20T06:27:08;6.97;;;2.80;;
66129;SDS011;52930;51.464;11.764;2023-12-20T06:29:33;8.67;;;2.20;;
66129;SDS011;52930;51.464;11.764;2023-12-20T06:31:59;7.13;;;2.17;;
66129;SDS011;52930;51.464;11.764;2023-12-20T06:34:25;5.97;;;2.30;;
66129;SDS011;52930;51.464;11.764;2023-12-20T06:36:50;7.37;;;2.20;;
66129;SDS011;52930;51.464;11.764;2023-12-20T06:39:15;6.53;;;1.70;;
66129;SDS011;52930;51.464;11.764;2023-12-20T06:41:41;5.57;;;1.73;;
66129;SDS011;52930;51.464;11.764;2023-12-20T06:44:07;7.03;;;1.70;;
66129;SDS011;52930;51.464;11.764;2023-12-20T06:46:33;5.00;;;1.60;;
66129;SDS011;52930;51.464;11.764;2023-12-20T06:48:58;9.05;;;2.22;;
66129;SDS011;52930;51.464;11.764;2023-12-20T06:51:23;5.37;;;1.57;;
66129;SDS011;52930;51.464;11.764;2023-12-20T06:53:50;7.13;;;1.60;;
66129;SDS011;52930;51.464;11.764;2023-12-20T06:56:16;4.95;;;1.52;;
66129;SDS011;52930;51.464;11.764;2023-12-20T06:58:41;7.57;;;2.00;;
66129;SDS011;52930;51.464;11.764;2023-12-20T07:01:10;5.35;;;1.50;;
66129;SDS011;52930;51.464;11.764;2023-12-20T07:03:39;5.80;;;1.30;;
66129;SDS011;52930;51.464;11.764;2023-12-20T07:06:05;3.97;;;1.60;;
66129;SDS011;52930;51.464;11.764;2023-12-20T07:08:30;7.23;;;1.80;;
66129;SDS011;52930;51.464;11.764;2023-12-20T07:10:55;6.63;;;1.30;;
66129;SDS011;52930;51.464;11.764;2023-12-20T07:13:21;7.43;;;1.52;;
66129;SDS011;52930;51.464;11.764;2023-12-20T07:15:47;5.27;;;1.50;;
66129;SDS011;52930;51.464;11.764;2023-12-20T07:18:12;5.97;;;1.40;;
66129;SDS011;52930;51.464;11.764;2023-12-20T07:20:37;9.25;;;1.40;;
66129;SDS011;52930;51.464;11.764;2023-12-20T07:23:03;7.57;;;1.97;;
66129;SDS011;52930;51.464;11.764;2023-12-20T07:25:28;7.43;;;1.80;;
66129;SDS011;52930;51.464;11.764;2023-12-20T07:27:55;7.80;;;1.70;;
66129;SDS011;52930;51.464;11.764;2023-12-20T07:30:20;6.63;;;1.50;;
66129;SDS011;52930;51.464;11.764;2023-12-20T07:32:45;8.13;;;1.10;;
66129;SDS011;52930;51.464;11.764;2023-12-20T07:35:12;5.22;;;1.15;;
66129;SDS011;52930;51.464;11.764;2023-12-20T07:37:37;7.57;;;1.50;;
66129;SDS011;52930;51.464;11.764;2023-12-20T07:40:03;7.57;;;1.43;;
66129;SDS011;52930;51.464;11.764;2023-12-20T07:42:28;5.47;;;1.13;;
66129;SDS011;52930;51.464;11.764;2023-12-20T07:44:54;3.97;;;0.93;;
66129;SDS011;52930;51.464;11.764;2023-12-20T07:47:20;7.40;;;1.57;;
66129;SDS011;52930;51.464;11.764;2023-12-20T07:49:47;6.53;;;1.02;;
66129;SDS011;52930;51.464;11.764;2023-12-20T07:52:16;5.25;;;1.20;;
66129;SDS011;52930;51.464;11.764;2023-12-20T07:54:42;7.27;;;1.10;;
66129;SDS011;52930;51.464;11.764;2023-12-20T07:57:07;5.03;;;1.00;;
66129;SDS011;52930;51.464;11.764;2023-12-20T07:59:32;9.95;;;1.58;;
66129;SDS011;52930;51.464;11.764;2023-12-20T08:01:58;8.40;;;1.23;;
66129;SDS011;52930;51.464;11.764;2023-12-20T08:04:23;6.90;;;1.40;;
66129;SDS011;52930;51.464;11.764;2023-12-20T08:06:50;7.30;;;1.20;;
66129;SDS011;52930;51.464;11.764;2023-12-20T08:09:15;6.28;;;1.33;;
66129;SDS011;52930;51.464;11.764;2023-12-20T08:11:44;5.77;;;1.63;;
66129;SDS011;52930;51.464;11.764;2023-12-20T08:14:12;4.15;;;0.88;;
66129;SDS011;52930;51.464;11.764;2023-12-20T08:16:38;8.93;;;0.90;;
66129;SDS011;52930;51.464;11.764;2023-12-20T08:19:03;6.10;;;1.27;;
66129;SDS011;52930;51.464;11.764;2023-12-20T08:21:28;6.77;;;1.30;;
66129;SDS011;52930;51.464;11.764;2023-12-20T08:23:53;8.10;;;1.83;;
66129;SDS011;52930;51.464;11.764;2023-12-20T08:26:19;5.50;;;1.30;;
66129;SDS011;52930;51.464;11.764;2023-12-20T08:28:46;5.10;;;1.40;;
66129;SDS011;52930;51.464;11.764;2023-12-20T08:31:14;5.60;;;1.97;;
66129;SDS011;52930;51.464;11.764;2023-12-20T08:33:41;6.75;;;1.77;;
66129;SDS011;52930;51.464;11.764;2023-12-20T08:36:06;7.07;;;1.30;;
66129;SDS011;52930;51.464;11.764;2023-12-20T08:38:32;5.73;;;1.40;;
66129;SDS011;52930;51.464;11.764;2023-12-20T08:40:57;5.67;;;1.53;;
66129;SDS011;52930;51.464;11.764;2023-12-20T08:43:22;4.63;;;1.00;;
66129;SDS011;52930;51.464;11.764;2023-12-20T08:45:47;7.22;;;1.40;;
66129;SDS011;52930;51.464;11.764;2023-12-20T08:48:13;4.47;;;1.50;;
66129;SDS011;52930;51.464;11.764;2023-12-20T08:50:38;5.10;;;1.57;;
66129;SDS011;52930;51.464;11.764;2023-12-20T08:53:04;7.20;;;1.83;;
66129;SDS011;52930;51.464;11.764;2023-12-20T08:55:29;7.53;;;2.00;;
66129;SDS011;52930;51.464;11.764;2023-12-20T08:57:55;5.20;;;1.20;;
66129;SDS011;52930;51.464;11.764;2023-12-20T09:00:21;6.07;;;1.67;;
66129;SDS011;52930;51.464;11.764;2023-12-20T09:02:49;8.23;;;1.30;;
66129;SDS011;52930;51.464;11.764;2023-12-20T09:05:14;9.40;;;1.50;;
66129;SDS011;52930;51.464;11.764;2023-12-20T09:07:39;3.97;;;0.90;;
66129;SDS011;52930;51.464;11.764;2023-12-20T09:10:05;6.77;;;1.20;;
66129;SDS011;52930;51.464;11.764;2023-12-20T09:12:30;6.63;;;1.60;;
66129;SDS011;52930;51.464;11.764;2023-12-20T09:14:56;4.85;;;1.25;;
66129;SDS011;52930;51.464;11.764;2023-12-20T09:17:21;7.60;;;1.47;;
66129;SDS011;52930;51.464;11.764;2023-12-20T09:19:47;7.03;;;1.53;;
66129;SDS011;52930;51.464;11.764;2023-12-20T09:22:13;4.45;;;1.30;;
66129;SDS011;52930;51.464;11.764;2023-12-20T09:24:38;6.53;;;1.20;;
66129;SDS011;52930;51.464;11.764;2023-12-20T09:27:04;4.40;;;0.90;;
66129;SDS011;52930;51.464;11.764;2023-12-20T09:29:30;12.65;;;1.70;;
66129;SDS011;52930;51.464;11.764;2023-12-20T09:31:56;6.60;;;1.60;;
66129;SDS011;52930;51.464;11.764;2023-12-20T09:34:22;6.13;;;1.60;;
66129;SDS011;52930;51.464;11.764;2023-12-20T09:36:48;8.33;;;1.73;;
66129;SDS011;52930;51.464;11.764;2023-12-20T09:39:13;11.37;;;2.30;;
66129;SDS011;52930;51.464;11.764;2023-12-20T09:41:41;5.82;;;1.58;;
66129;SDS011;52930;51.464;11.764;2023-12-20T09:44:08;4.28;;;1.35;;
66129;SDS011;52930;51.464;11.764;2023-12-20T09:46:34;6.97;;;1.73;;
66129;SDS011;52930;51.464;11.764;2023-12-20T09:49:01;4.72;;;1.40;;
66129;SDS011;52930;51.464;11.764;2023-12-20T09:51:27;6.25;;;2.20;;
66129;SDS011;52930;51.464;11.764;2023-12-20T09:53:54;8.03;;;1.80;;
66129;SDS011;52930;51.464;11.764;2023-12-20T09:56:19;6.82;;;2.33;;
66129;SDS011;52930;51.464;11.764;2023-12-20T09:58:44;6.27;;;2.20;;
66129;SDS011;52930;51.464;11.764;2023-12-20T10:01:10;5.73;;;1.70;;
66129;SDS011;52930;51.464;11.764;2023-12-20T10:03:35;7.43;;;2.10;;
66129;SDS011;52930;51.464;11.764;2023-12-20T10:06:03;7.35;;;2.13;;
66129;SDS011;52930;51.464;11.764;2023-12-20T10:08:28;7.15;;;1.75;;
66129;SDS011;52930;51.464;11.764;2023-12-20T10:10:55;8.13;;;2.13;;
66129;SDS011;52930;51.464;11.764;2023-12-20T10:13:22;8.90;;;2.35;;
66129;SDS011;52930;51.464;11.764;2023-12-20T10:15:47;6.77;;;2.37;;
66129;SDS011;52930;51.464;11.764;2023-12-20T10:18:14;6.50;;;1.60;;
66129;SDS011;52930;51.464;11.764;2023-12-20T10:20:40;7.10;;;2.43;;
66129;SDS011;52930;51.464;11.764;2023-12-20T10:23:06;7.47;;;1.73;;
66129;SDS011;52930;51.464;11.764;2023-12-20T10:25:32;7.47;;;2.03;;
66129;SDS011;52930;51.464;11.764;2023-12-20T10:30:36;4.85;;;1.77;;
66129;SDS011;52930;51.464;11.764;2023-12-20T10:33:01;6.68;;;1.50;;
66129;SDS011;52930;51.464;11.764;2023-12-20T10:35:26;5.47;;;1.60;;
66129;SDS011;52930;51.464;11.764;2023-12-20T10:37:53;6.93;;;1.60;;
66129;SDS011;52930;51.464;11.764;2023-12-20T10:40:21;10.02;;;1.80;;
66129;SDS011;52930;51.464;11.764;2023-12-20T10:42:47;5.17;;;1.40;;
66129;SDS011;52930;51.464;11.764;2023-12-20T10:45:14;7.75;;;1.80;;
66129;SDS011;52930;51.464;11.764;2023-12-20T10:47:41;5.23;;;1.70;;
66129;SDS011;52930;51.464;11.764;2023-12-20T10:50:09;8.52;;;2.00;;
66129;SDS011;52930;51.464;11.764;2023-12-20T10:52:34;9.10;;;2.20;;
66129;SDS011;52930;51.464;11.764;2023-12-20T10:55:00;5.82;;;1.58;;
66129;SDS011;52930;51.464;11.764;2023-12-20T10:57:26;5.67;;;1.43;;
66129;SDS011;52930;51.464;11.764;2023-12-20T10:59:53;5.80;;;1.67;;
66129;SDS011;52930;51.464;11.764;2023-12-20T11:02:19;6.68;;;2.38;;
66129;SDS011;52930;51.464;11.764;2023-12-20T11:04:47;10.23;;;2.00;;
66129;SDS011;52930;51.464;11.764;2023-12-20T11:07:31;6.25;;;1.65;;
66129;SDS011;52930;51.464;11.764;2023-12-20T11:10:03;8.30;;;1.50;;
66129;SDS011;52930;51.464;11.764;2023-12-20T11:12:52;7.90;;;1.33;;
66129;SDS011;52930;51.464;11.764;2023-12-20T11:15:20;6.30;;;1.80;;
66129;SDS011;52930;51.464;11.764;2023-12-20T11:17:45;5.25;;;1.60;;
66129;SDS011;52930;51.464;11.764;2023-12-20T11:20:12;6.20;;;1.40;;
66129;SDS011;52930;51.464;11.764;2023-12-20T11:22:39;6.22;;;1.25;;
66129;SDS011;52930;51.464;11.764;2023-12-20T11:25:10;4.68;;;1.63;;
66129;SDS011;52930;51.464;11.764;2023-12-20T11:27:36;6.35;;;1.25;;
66129;SDS011;52930;51.464;11.764;2023-12-20T11:30:03;5.47;;;1.70;;
66129;SDS011;52930;51.464;11.764;2023-12-20T11:32:34;8.52;;;1.40;;
66129;SDS011;52930;51.464;11.764;2023-12-20T11:35:00;9.98;;;1.70;;
66129;SDS011;52930;51.464;11.764;2023-12-20T11:37:35;8.80;;;2.15;;
66129;SDS011;52930;51.464;11.764;2023-12-20T11:40:02;7.68;;;1.42;;
66129;SDS011;52930;51.464;11.764;2023-12-20T11:42:33;6.43;;;1.47;;
66129;SDS011;52930;51.464;11.764;2023-12-20T11:45:02;7.90;;;1.55;;
66129;SDS011;52930;51.464;11.764;2023-12-20T11:47:28;5.28;;;1.63;;
66129;SDS011;52930;51.464;11.764;2023-12-20T11:49:54;7.30;;;1.80;;
66129;SDS011;52930;51.464;11.764;2023-12-20T11:52:21;7.70;;;1.50;;
66129;SDS011;52930;51.464;11.764;2023-12-20T11:54:46;6.47;;;1.50;;
66129;SDS011;52930;51.464;11.764;2023-12-20T11:57:12;6.88;;;1.50;;
66129;SDS011;52930;51.464;11.764;2023-12-20T11:59:39;8.07;;;1.60;;
66129;SDS011;52930;51.464;11.764;2023-12-20T12:02:05;5.53;;;1.30;;
66129;SDS011;52930;51.464;11.764;2023-12-20T12:04:30;7.70;;;1.58;;
66129;SDS011;52930;51.464;11.764;2023-12-20T12:06:56;4.50;;;1.50;;
66129;SDS011;52930;51.464;11.764;2023-12-20T12:09:21;6.43;;;1.50;;
66129;SDS011;52930;51.464;11.764;2023-12-20T12:11:46;9.47;;;1.60;;
66129;SDS011;52930;51.464;11.764;2023-12-20T12:14:13;10.00;;;1.45;;
66129;SDS011;52930;51.464;11.764;2023-12-20T12:16:38;5.03;;;1.43;;
66129;SDS011;52930;51.464;11.764;2023-12-20T12:19:03;12.93;;;1.37;;
66129;SDS011;52930;51.464;11.764;2023-12-20T12:21:29;6.90;;;1.50;;
66129;SDS011;52930;51.464;11.764;2023-12-20T12:23:54;6.70;;;1.33;;
66129;SDS011;52930;51.464;11.764;2023-12-20T12:26:31;6.15;;;1.08;;
66129;SDS011;52930;51.464;11.764;2023-12-20T12:28:56;8.57;;;1.30;;
66129;SDS011;52930;51.464;11.764;2023-12-20T12:31:22;5.17;;;1.37;;
66129;SDS011;52930;51.464;11.764;2023-12-20T12:33:48;4.68;;;1.38;;
66129;SDS011;52930;51.464;11.764;2023-12-20T12:36:13;6.13;;;1.33;;
66129;SDS011;52930;51.464;11.764;2023-12-20T12:38:41;5.68;;;1.70;;
66129;SDS011;52930;51.464;11.764;2023-12-20T12:41:06;5.13;;;1.63;;
66129;SDS011;52930;51.464;11.764;2023-12-20T12:43:32;5.47;;;1.20;;
66129;SDS011;52930;51.464;11.764;2023-12-20T12:45:57;4.43;;;1.20;;
66129;SDS011;52930;51.464;11.764;2023-12-20T12:48:22;5.93;;;1.10;;
66129;SDS011;52930;51.464;11.764;2023-12-20T12:50:48;4.60;;;1.47;;
66129;SDS011;52930;51.464;11.764;2023-12-20T12:53:13;7.93;;;1.50;;
66129;SDS011;52930;51.464;11.764;2023-12-20T12:55:38;4.63;;;1.23;;
66129;SDS011;52930;51.464;11.764;2023-12-20T12:58:04;6.87;;;1.43;;
66129;SDS011;52930;51.464;11.764;2023-12-20T13:00:29;7.22;;;1.70;;
66129;SDS011;52930;51.464;11.764;2023-12-20T13:02:55;6.13;;;1.63;;
66129;SDS011;52930;51.464;11.764;2023-12-20T13:05:20;7.17;;;1.60;;
66129;SDS011;52930;51.464;11.764;2023-12-20T13:07:45;6.53;;;2.23;;
66129;SDS011;52930;51.464;11.764;2023-12-20T13:10:11;6.27;;;1.43;;
66129;SDS011;52930;51.464;11.764;2023-12-20T13:12:36;3.60;;;1.10;;
66129;SDS011;52930;51.464;11.764;2023-12-20T13:15:01;7.70;;;1.90;;
66129;SDS011;52930;51.464;11.764;2023-12-20T13:17:28;5.88;;;1.58;;
66129;SDS011;52930;51.464;11.764;2023-12-20T13:19:54;3.50;;;1.33;;
66129;SDS011;52930;51.464;11.764;2023-12-20T13:22:19;7.13;;;1.60;;
66129;SDS011;52930;51.464;11.764;2023-12-20T13:24:44;7.57;;;1.30;;
66129;SDS011;52930;51.464;11.764;2023-12-20T13:27:10;5.27;;;1.43;;
66129;SDS011;52930;51.464;11.764;2023-12-20T13:29:35;8.60;;;1.50;;
66129;SDS011;52930;51.464;11.764;2023-12-20T13:32:01;4.97;;;1.17;;
66129;SDS011;52930;51.464;11.764;2023-12-20T13:34:28;5.65;;;1.30;;
66129;SDS011;52930;51.464;11.764;2023-12-20T13:36:54;4.60;;;1.43;;
66129;SDS011;52930;51.464;11.764;2023-12-20T13:39:19;7.57;;;1.60;;
66129;SDS011;52930;51.464;11.764;2023-12-20T13:41:44;6.43;;;1.53;;
66129;SDS011;52930;51.464;11.764;2023-12-20T13:44:10;6.47;;;1.80;;
66129;SDS011;52930;51.464;11.764;2023-12-20T13:46:36;5.13;;;1.73;;
66129;SDS011;52930;51.464;11.764;2023-12-20T13:49:02;4.70;;;1.40;;
66129;SDS011;52930;51.464;11.764;2023-12-20T13:51:27;4.63;;;1.53;;
66129;SDS011;52930;51.464;11.764;2023-12-20T13:53:52;4.63;;;1.40;;
66129;SDS011;52930;51.464;11.764;2023-12-20T13:56:19;7.63;;;1.77;;
66129;SDS011;52930;51.464;11.764;2023-12-20T13:58:45;6.83;;;1.47;;
66129;SDS011;52930;51.464;11.764;2023-12-20T14:01:11;4.75;;;1.40;;
66129;SDS011;52930;51.464;11.764;2023-12-20T14:03:36;7.93;;;1.50;;
66129;SDS011;52930;51.464;11.764;2023-12-20T14:06:02;6.00;;;1.80;;
66129;SDS011;52930;51.464;11.764;2023-12-20T14:08:27;5.68;;;1.05;;
66129;SDS011;52930;51.464;11.764;2023-12-20T14:10:53;5.30;;;1.60;;
66129;SDS011;52930;51.464;11.764;2023-12-20T14:13:18;5.07;;;1.13;;
66129;SDS011;52930;51.464;11.764;2023-12-20T14:15:44;6.25;;;1.70;;
66129;SDS011;52930;51.464;11.764;2023-12-20T14:18:09;7.67;;;1.57;;
66129;SDS011;52930;51.464;11.764;2023-12-20T14:20:35;7.17;;;2.20;;
66129;SDS011;52930;51.464;11.764;2023-12-20T14:23:02;4.47;;;1.75;;
66129;SDS011;52930;51.464;11.764;2023-12-20T14:25:28;4.43;;;1.30;;
66129;SDS011;52930;51.464;11.764;2023-12-20T14:27:53;8.23;;;1.60;;